sensor_id;sensor_type;location;lat;lon;timestamp;P1;durP1;ratioP1;P2;durP2;ratioP2
78820;SDS011;68171;13.882;99.692;2023-03-01T08:33:54;28.77;;;25.45;;
78820;SDS011;68171;13.882;99.692;2023-03-01T08:35:02;28.63;;;25.25;;
78820;SDS011;68171;13.882;99.692;2023-03-01T08:36:09;28.17;;;25.27;;
78820;SDS011;68171;13.882;99.692;2023-03-01T08:37:14;30.87;;;25.83;;
78820;SDS011;68171;13.882;99.692;2023-03-01T08:38:21;32.80;;;28.20;;
78820;SDS011;68171;13.882;99.692;2023-03-01T08:39:26;31.60;;;28.20;;
78820;SDS011;68171;13.882;99.692;2023-03-01T08:40:32;30.38;;;25.73;;
78820;SDS011;68171;13.882;99.692;2023-03-01T08:41:39;29.83;;;26.63;;
78820;SDS011;68171;13.882;99.692;2023-03-01T08:42:48;28.60;;;25.63;;
78820;SDS011;68171;13.882;99.692;2023-03-01T08:43:55;29.48;;;25.95;;
78820;SDS011;68171;13.882;99.692;2023-03-01T08:45:02;27.85;;;24.92;;
78820;SDS011;68171;13.882;99.692;2023-03-01T08:46:09;30.10;;;26.98;;
78820;SDS011;68171;13.882;99.692;2023-03-01T08:47:15;30.73;;;27.57;;
78820;SDS011;68171;13.882;99.692;2023-03-01T08:48:22;34.73;;;29.57;;
78820;SDS011;68171;13.882;99.692;2023-03-01T08:49:30;33.13;;;26.83;;
78820;SDS011;68171;13.882;99.692;2023-03-01T08:50:37;29.63;;;26.05;;
78820;SDS011;68171;13.882;99.692;2023-03-01T08:51:44;31.02;;;27.63;;
78820;SDS011;68171;13.882;99.692;2023-03-01T08:52:51;36.50;;;32.25;;
78820;SDS011;68171;13.882;99.692;2023-03-01T08:53:57;40.28;;;35.53;;
78820;SDS011;68171;13.882;99.692;2023-03-01T08:55:04;40.80;;;36.40;;
78820;SDS011;68171;13.882;99.692;2023-03-01T08:56:11;33.53;;;29.90;;
78820;SDS011;68171;13.882;99.692;2023-03-01T08:57:18;30.33;;;27.08;;
78820;SDS011;68171;13.882;99.692;2023-03-01T08:58:24;27.07;;;24.27;;
78820;SDS011;68171;13.882;99.692;2023-03-01T08:59:30;28.90;;;25.13;;
78820;SDS011;68171;13.882;99.692;2023-03-01T09:00:40;27.63;;;24.52;;
78820;SDS011;68171;13.882;99.692;2023-03-01T09:01:48;26.95;;;24.15;;
78820;SDS011;68171;13.882;99.692;2023-03-01T09:02:54;27.27;;;23.95;;
78820;SDS011;68171;13.882;99.692;2023-03-01T09:04:00;28.80;;;25.58;;
78820;SDS011;68171;13.882;99.692;2023-03-01T09:05:08;27.30;;;24.33;;
78820;SDS011;68171;13.882;99.692;2023-03-01T09:06:15;30.30;;;25.35;;
78820;SDS011;68171;13.882;99.692;2023-03-01T09:07:22;30.48;;;27.10;;
78820;SDS011;68171;13.882;99.692;2023-03-01T09:08:31;27.58;;;24.77;;
78820;SDS011;68171;13.882;99.692;2023-03-01T09:09:40;26.30;;;23.60;;
78820;SDS011;68171;13.882;99.692;2023-03-01T09:10:47;29.33;;;26.43;;
78820;SDS011;68171;13.882;99.692;2023-03-01T09:11:52;28.90;;;26.10;;
78820;SDS011;68171;13.882;99.692;2023-03-01T09:12:58;29.20;;;26.08;;
78820;SDS011;68171;13.882;99.692;2023-03-01T09:14:05;28.52;;;25.30;;
78820;SDS011;68171;13.882;99.692;2023-03-01T09:15:12;28.83;;;25.83;;
78820;SDS011;68171;13.882;99.692;2023-03-01T09:16:18;36.22;;;31.60;;
78820;SDS011;68171;13.882;99.692;2023-03-01T09:17:25;35.45;;;30.67;;
78820;SDS011;68171;13.882;99.692;2023-03-01T09:18:32;36.10;;;31.95;;
78820;SDS011;68171;13.882;99.692;2023-03-01T09:19:37;33.78;;;29.48;;
78820;SDS011;68171;13.882;99.692;2023-03-01T09:20:46;31.50;;;26.03;;
78820;SDS011;68171;13.882;99.692;2023-03-01T09:21:51;27.13;;;24.20;;
78820;SDS011;68171;13.882;99.692;2023-03-01T09:22:59;24.52;;;22.02;;
78820;SDS011;68171;13.882;99.692;2023-03-01T09:24:05;26.48;;;22.60;;
78820;SDS011;68171;13.882;99.692;2023-03-01T09:25:11;26.73;;;22.10;;
78820;SDS011;68171;13.882;99.692;2023-03-01T09:26:19;31.35;;;22.13;;
78820;SDS011;68171;13.882;99.692;2023-03-01T09:27:26;24.58;;;21.50;;
78820;SDS011;68171;13.882;99.692;2023-03-01T09:28:33;25.13;;;22.45;;
78820;SDS011;68171;13.882;99.692;2023-03-01T09:29:39;26.90;;;24.02;;
78820;SDS011;68171;13.882;99.692;2023-03-01T09:30:46;23.92;;;21.48;;
78820;SDS011;68171;13.882;99.692;2023-03-01T09:31:51;25.23;;;21.60;;
78820;SDS011;68171;13.882;99.692;2023-03-01T09:32:59;25.20;;;22.60;;
78820;SDS011;68171;13.882;99.692;2023-03-01T09:34:06;26.60;;;22.30;;
78820;SDS011;68171;13.882;99.692;2023-03-01T09:35:12;28.40;;;25.35;;
78820;SDS011;68171;13.882;99.692;2023-03-01T09:36:22;31.80;;;28.17;;
78820;SDS011;68171;13.882;99.692;2023-03-01T09:37:31;26.80;;;24.00;;
78820;SDS011;68171;13.882;99.692;2023-03-01T09:38:38;37.45;;;33.42;;
78820;SDS011;68171;13.882;99.692;2023-03-01T09:39:43;33.80;;;30.20;;
78820;SDS011;68171;13.882;99.692;2023-03-01T09:40:50;27.08;;;24.25;;
78820;SDS011;68171;13.882;99.692;2023-03-01T09:41:58;23.92;;;21.40;;
78820;SDS011;68171;13.882;99.692;2023-03-01T09:43:07;22.57;;;20.27;;
78820;SDS011;68171;13.882;99.692;2023-03-01T09:44:30;22.60;;;20.13;;
78820;SDS011;68171;13.882;99.692;2023-03-01T09:45:40;23.85;;;19.80;;
78820;SDS011;68171;13.882;99.692;2023-03-01T09:46:48;21.98;;;19.48;;
78820;SDS011;68171;13.882;99.692;2023-03-01T09:47:54;22.75;;;19.20;;
78820;SDS011;68171;13.882;99.692;2023-03-01T09:49:02;21.98;;;19.45;;
78820;SDS011;68171;13.882;99.692;2023-03-01T09:50:10;20.33;;;18.30;;
78820;SDS011;68171;13.882;99.692;2023-03-01T09:51:23;21.20;;;18.92;;
78820;SDS011;68171;13.882;99.692;2023-03-01T09:52:34;21.02;;;18.92;;
78820;SDS011;68171;13.882;99.692;2023-03-01T09:53:44;21.85;;;18.38;;
78820;SDS011;68171;13.882;99.692;2023-03-01T09:54:52;20.60;;;17.73;;
78820;SDS011;68171;13.882;99.692;2023-03-01T09:56:02;19.13;;;16.53;;
78820;SDS011;68171;13.882;99.692;2023-03-01T09:57:15;17.90;;;15.70;;
78820;SDS011;68171;13.882;99.692;2023-03-01T09:58:29;17.00;;;15.30;;
78820;SDS011;68171;13.882;99.692;2023-03-01T09:59:54;18.30;;;16.35;;
78820;SDS011;68171;13.882;99.692;2023-03-01T10:01:12;20.05;;;17.45;;
78820;SDS011;68171;13.882;99.692;2023-03-01T10:02:34;22.35;;;18.52;;
78820;SDS011;68171;13.882;99.692;2023-03-01T10:03:48;19.75;;;17.63;;
78820;SDS011;68171;13.882;99.692;2023-03-01T10:05:05;20.15;;;17.90;;
78820;SDS011;68171;13.882;99.692;2023-03-01T10:06:25;19.63;;;16.73;;
78820;SDS011;68171;13.882;99.692;2023-03-01T10:07:38;17.60;;;15.80;;
78820;SDS011;68171;13.882;99.692;2023-03-01T10:08:53;19.67;;;15.80;;
78820;SDS011;68171;13.882;99.692;2023-03-01T10:10:05;17.85;;;15.45;;
78820;SDS011;68171;13.882;99.692;2023-03-01T10:11:17;21.05;;;16.63;;
78820;SDS011;68171;13.882;99.692;2023-03-01T10:12:35;17.63;;;15.70;;
78820;SDS011;68171;13.882;99.692;2023-03-01T10:13:50;17.27;;;14.85;;
78820;SDS011;68171;13.882;99.692;2023-03-01T10:15:05;15.82;;;14.13;;
78820;SDS011;68171;13.882;99.692;2023-03-01T10:16:17;16.50;;;14.73;;
